Wednesday, June 20, 2018, 3:34 AM EDT
Back to Local

KDOV, Dover Air Force Base

Location: Dover, DE, United States Lat: 39.133
Local Time: 3:34 AM EDT ( 7:34 GMT) Lon: -75.467
Time Zone: US/Eastern Elev: 29 ft

Show me the last for .
Show Decoded

2018-06-20 02:56 METAR KDOV 200656Z AUTO 01004KT 4SM BR SCT060 21/20 A2985 RMK AO2 SLP111
                 T02100203 $ =
2018-06-20 01:56 METAR KDOV 200556Z AUTO 01004KT 5SM BR CLR 21/20 A2985 RMK AO2 SLP111 T02100203
                 10277 20210 55000 $ =
2018-06-20 00:56 METAR KDOV 200456Z AUTO 03003KT 9SM CLR 22/21 A2985 RMK AO2 SLP111 T02190209
                 403090218 $ =
2018-06-19 23:56 METAR KDOV 200356Z AUTO 07005KT 10SM FEW060 23/22 A2985 RMK AO2 SLP111 T02270215
                 $ =
2018-06-19 22:56 METAR KDOV 200256Z AUTO 05005KT 10SM CLR 23/22 A2985 RMK AO2 SLP111 T02300216
                 50009 $ =
2018-06-19 21:56 METAR KDOV 200156Z AUTO 34008KT 10SM SCT055 25/17 A2986 RMK AO2 SLP114 T02460173
                 $ =
2018-06-19 20:56 METAR KDOV 200056Z AUTO 33005KT 10SM CLR 26/19 A2983 RMK AO2 SLP104 T02550189 $
                 =
2018-06-19 19:56 METAR KDOV 192356Z AUTO 32004KT 10SM CLR 28/19 A2982 RMK AO2 SLP101 T02780190
                 10303 20278 53009 $ =
2018-06-19 18:56 METAR KDOV 192256Z AUTO 36005KT 10SM BKN070 29/19 A2980 RMK AO2 SLP094 T02900193
                 $ =
2018-06-19 17:56 METAR KDOV 192156Z AUTO 33008KT 10SM CLR 29/21 A2979 RMK AO2 SLP091 T02850205 $
                 =
2018-06-19 16:56 METAR KDOV 192056Z AUTO 34009KT 10SM FEW055 SCT070 SCT190 29/21 A2980 RMK AO2
                 SLP094 T02880213 55005 $ =
2018-06-19 15:56 METAR KDOV 191956Z AUTO 34010KT 10SM BKN055 29/22 A2980 RMK AO2 SLP094 T02890219
                 $ =
2018-06-19 14:56 METAR KDOV 191856Z AUTO 35008KT 10SM FEW034 FEW048 SCT085 SCT150 SCT180 BKN210
                 30/23 A2980 RMK AO2 SLP094 T02950229 $ =
2018-06-19 13:56 METAR KDOV 191756Z 35012KT 10SM BKN075 BKN190 30/23 A2981 RMK AO2A SLP098
                 T02980227 10309 20271 58003 $ =
2018-06-19 12:56 METAR KDOV 191656Z 36011G19KT 10SM SCT033 SCT046 BKN160 30/23 A2982 RMK AO2A
                 SLP101 T03000229 $ =
2018-06-19 11:56 METAR KDOV 191556Z AUTO 33009KT 10SM FEW038 SCT047 30/23 A2982 RMK AO2 SLP101
                 T03000229 $ =
2018-06-19 10:56 METAR KDOV 191456Z AUTO 34011KT 10SM FEW046 FEW180 30/23 A2982 RMK AO2 SLP101
                 T02980227 50000 $ =
2018-06-19 09:56 METAR KDOV 191356Z AUTO 30010KT 10SM FEW160 29/23 A2982 RMK AO2 SLP101 T02930225
                 $ =
2018-06-19 08:56 METAR KDOV 191256Z AUTO 28006KT 10SM FEW200 28/22 A2982 RMK AO2 SLP101 T02750224
                 $ =
2018-06-19 07:56 METAR KDOV 191156Z AUTO 28008KT 10SM FEW200 27/22 A2982 RMK AO2 SLP101 T02710222
                 10271 20259 52006 TSNO $ =
2018-06-19 06:56 METAR KDOV 191056Z AUTO 26006KT 10SM CLR 27/22 A2981 RMK AO2 SLP098 T02650223
                 TSNO $ =
2018-06-19 05:56 METAR KDOV 190956Z COR AUTO 24007KT 10SM SCT100 BKN200 26/22 A2981 RMK AO2
                 SLP098 T02590224 TSNO $ COR 0959 =
2018-06-19 04:56 METAR KDOV 190856Z AUTO 25008KT 10SM CLR 27/22 A2980 RMK AO2 SLP094 T02660222
                 55009 TSNO $ =
2018-06-19 03:56 METAR KDOV 190756Z AUTO 23008KT 10SM CLR 26/23 A2979 RMK AO2 SLP091 T02610227
                 TSNO $ =

Support USWX by starting your Amazon purchase here.